Time;durP1;ratioP1;P1;durP2;ratioP2;P2;SDS_P1;SDS_P2;PMS_P1;PMS_P2;Temp;Humidity;BMP_temperature;BMP_pressure;BME280_temperature;BME280_humidity;BME280_pressure;Samples;Min_cycle;Max_cycle;Signal;HPM_P1;HPM_P2
2022/12/20 00:01:39;;;;;;;6.70;6.10;;;24.80;37.60;;;-142.21;30.69;112049.66;5074165;28;20201;-83
2022/12/20 00:04:07;;;;;;;6.83;6.13;;;24.80;37.60;;;-142.21;30.85;112049.66;5073848;28;20290;-83
2022/12/20 00:06:36;;;;;;;6.83;6.23;;;24.80;37.60;;;-142.21;30.82;112049.66;5072931;28;20240;-84
2022/12/20 00:09:08;;;;;;;7.57;6.20;;;24.80;37.70;;;-142.21;30.99;112049.66;5058795;28;20564;-83
2022/12/20 00:11:40;;;;;;;7.00;6.40;;;24.80;37.70;;;-142.21;30.89;112049.66;5053179;28;20757;-83
2022/12/20 00:14:08;;;;;;;6.90;5.77;;;24.80;37.70;;;-142.21;30.78;112049.66;5053344;28;20218;-83
2022/12/20 00:16:37;;;;;;;6.20;5.60;;;24.80;37.60;;;-142.21;31.07;112049.66;5052389;28;20634;-83
2022/12/20 00:19:07;;;;;;;6.83;6.23;;;24.70;37.60;;;-142.21;30.64;112049.66;5053394;28;20232;-83
2022/12/20 00:21:36;;;;;;;6.97;6.30;;;24.80;37.70;;;-142.21;31.12;112049.66;5053064;28;20396;-83
2022/12/20 00:24:03;;;;;;;6.63;6.03;;;24.80;37.70;;;-142.21;30.76;112049.66;5053141;28;20221;-83
2022/12/20 00:26:33;;;;;;;7.03;6.33;;;24.80;37.70;;;-142.21;30.93;112049.66;5057156;28;20295;-81
2022/12/20 00:29:02;;;;;;;6.83;6.13;;;24.80;37.70;;;-142.21;30.83;112049.66;5073060;28;20692;-83
2022/12/20 00:31:31;;;;;;;7.27;6.67;;;24.70;37.60;;;-142.21;31.05;112049.66;5072974;28;20247;-84
2022/12/20 00:34:00;;;;;;;6.30;5.80;;;24.70;37.60;;;-142.21;30.74;112049.66;5073154;28;20249;-81
2022/12/20 00:36:31;;;;;;;6.87;6.23;;;24.80;37.70;;;-142.21;30.72;112049.66;5072816;28;20299;-83
2022/12/20 00:39:00;;;;;;;6.93;6.23;;;24.80;37.70;;;-142.21;30.89;112049.66;5073079;28;20228;-82
2022/12/20 00:41:31;;;;;;;6.07;5.57;;;24.70;37.60;;;-142.21;30.69;112049.66;5060619;28;20197;-80
2022/12/20 00:43:59;;;;;;;6.70;6.10;;;24.80;37.70;;;-142.21;30.73;112049.66;5052649;28;20660;-81
2022/12/20 00:46:28;;;;;;;6.90;6.30;;;24.70;37.60;;;-142.21;31.12;112049.66;5052243;28;20291;-82
2022/12/20 00:48:56;;;;;;;6.70;6.10;;;24.70;37.50;;;-142.21;30.78;112049.66;5052593;28;20288;-81
2022/12/20 00:51:27;;;;;;;6.23;5.73;;;24.70;37.60;;;-142.21;30.72;112049.66;5051948;28;20704;-82
2022/12/20 00:53:55;;;;;;;6.90;6.30;;;24.70;37.60;;;-142.21;30.78;112049.66;5052555;28;20300;-81
2022/12/20 00:56:23;;;;;;;6.67;6.07;;;24.70;37.70;;;-142.21;31.03;112049.66;5052352;28;20207;-83
2022/12/20 00:58:52;;;;;;;6.30;5.77;;;24.70;37.60;;;-142.21;30.79;112049.66;5052412;28;20220;-83
2022/12/20 01:01:22;;;;;;;6.53;6.03;;;24.60;37.60;;;-142.21;31.17;112049.66;5052668;28;20210;-82
2022/12/20 01:03:53;;;;;;;6.20;5.60;;;24.70;37.70;;;-142.21;30.75;112049.66;5052585;28;20244;-81
2022/12/20 01:06:22;;;;;;;6.90;6.20;;;24.70;37.70;;;-142.21;30.95;112049.66;5051737;28;20229;-83
2022/12/20 01:08:49;;;;;;;6.57;5.97;;;24.70;37.70;;;-142.21;30.85;112049.66;5052478;28;20267;-84
2022/12/20 01:11:20;;;;;;;6.83;6.00;;;24.70;37.60;;;-142.21;30.89;112049.66;5052134;28;20210;-82
2022/12/20 01:13:52;;;;;;;6.13;5.53;;;24.70;37.70;;;-142.21;31.02;112049.66;5052547;28;20232;-82
2022/12/20 01:16:23;;;;;;;6.33;5.73;;;24.60;37.60;;;-142.21;31.12;112049.66;5052916;28;20558;-84
2022/12/20 01:18:53;;;;;;;6.27;5.73;;;24.60;37.90;;;-142.21;30.89;112049.66;5052596;28;20712;-84
2022/12/20 01:21:24;;;;;;;6.97;6.37;;;24.60;37.60;;;-142.21;30.83;112049.66;5052346;28;20296;-83
2022/12/20 01:23:52;;;;;;;6.80;6.20;;;24.60;37.60;;;-142.21;30.94;112049.66;5052583;28;20269;-84
2022/12/20 01:26:22;;;;;;;6.03;5.53;;;24.60;37.60;;;-142.21;30.92;112049.66;5068061;28;20241;-84
2022/12/20 01:28:54;;;;;;;6.50;5.90;;;24.60;37.60;;;-142.21;30.79;112049.66;5089048;28;20227;-83
2022/12/20 01:31:23;;;;;;;6.17;5.67;;;24.70;37.70;;;-142.21;30.67;112049.66;5078203;28;20205;-82
2022/12/20 01:33:55;;;;;;;6.33;5.80;;;24.60;37.60;;;-142.21;31.03;112049.66;5078230;28;20240;-82
2022/12/20 01:36:26;;;;;;;6.20;5.70;;;24.70;37.60;;;-142.21;30.96;112049.66;5076168;28;20220;-83
2022/12/20 01:38:58;;;;;;;6.37;5.77;;;24.70;37.70;;;-142.21;31.04;112049.66;5076213;28;20296;-84
2022/12/20 01:41:25;;;;;;;6.30;5.80;;;24.60;38.20;;;-142.21;30.58;112049.66;5075248;28;20296;-81
2022/12/20 01:43:59;;;;;;;6.27;5.67;;;24.60;37.50;;;-142.21;30.76;112049.66;5075909;28;20235;-81
2022/12/20 01:46:29;;;;;;;5.93;5.43;;;24.60;37.50;;;-142.21;31.20;112049.66;5069647;28;20229;-83
2022/12/20 01:49:05;;;;;;;6.33;5.73;;;24.60;37.60;;;-142.21;30.94;112049.66;5055414;28;20218;-82
2022/12/20 01:51:39;;;;;;;6.10;5.60;;;24.60;37.60;;;-142.21;30.82;112049.66;5055466;28;20296;-83
2022/12/20 01:54:14;;;;;;;6.33;5.73;;;24.70;37.70;;;-142.21;30.81;112049.66;5055562;28;20225;-85
2022/12/20 01:56:48;;;;;;;6.40;5.73;;;24.70;37.70;;;-142.21;31.11;112049.66;5054971;28;20233;-81
2022/12/20 01:59:16;;;;;;;5.83;5.33;;;24.60;37.60;;;-142.21;31.05;112049.66;5055377;28;20269;-82
2022/12/20 02:01:45;;;;;;;5.90;5.40;;;24.70;37.60;;;-142.21;31.14;112049.66;5055192;28;20244;-82
2022/12/20 02:04:19;;;;;;;5.93;5.43;;;24.60;37.60;;;-142.21;30.98;112049.66;5054367;28;20219;-83
2022/12/20 02:06:47;;;;;;;6.67;6.07;;;24.70;37.70;;;-142.21;30.70;112049.66;5055446;28;20296;-82
2022/12/20 02:09:14;;;;;;;6.20;5.60;;;24.70;37.60;;;-142.21;31.07;112049.66;5055289;28;20305;-82
2022/12/20 02:12:06;;;;;;;5.97;5.47;;;24.60;37.60;;;-142.21;30.73;112049.66;5055062;28;20593;-82
2022/12/20 02:15:12;;;;;;;6.53;5.93;;;24.70;37.70;;;-142.21;31.02;112049.66;5055039;28;20256;-83
2022/12/20 02:17:53;;;;;;;6.23;5.73;;;24.60;37.60;;;-142.21;31.00;112049.66;5054968;28;20849;-82
2022/12/20 02:20:57;;;;;;;5.50;5.07;;;24.60;38.20;;;-142.21;30.90;112049.66;5055023;28;20221;-81
2022/12/20 02:24:33;;;;;;;5.83;5.33;;;24.60;37.70;;;-142.21;31.14;112049.66;5054952;28;20236;-83
2022/12/20 02:27:42;;;;;;;6.90;6.20;;;24.70;37.70;;;-142.21;30.92;112049.66;4993741;28;20250;-82
2022/12/20 02:30:19;;;;;;;5.60;5.10;;;24.70;37.80;;;-142.21;31.15;112049.66;4993942;28;20294;-83
2022/12/20 02:32:59;;;;;;;5.90;5.40;;;24.70;37.70;;;-142.21;31.14;112049.66;5053769;28;20209;-83
2022/12/20 02:35:30;;;;;;;5.57;5.07;;;24.60;37.70;;;-142.21;30.83;112049.66;5074642;28;20307;-81
2022/12/20 02:38:02;;;;;;;6.27;5.73;;;24.60;37.60;;;-142.21;31.14;112049.66;5074714;28;20209;-82
2022/12/20 02:40:39;;;;;;;6.23;5.63;;;24.60;37.70;;;-142.21;31.19;112049.66;5073938;28;20266;-83
2022/12/20 02:45:14;;;;;;;5.77;5.27;;;24.60;37.70;;;-142.21;31.01;112049.66;5074776;28;20242;-83
2022/12/20 02:46:01;;;;;;;6.37;5.87;;;24.70;37.70;;;-142.21;31.15;112049.66;5074201;28;20212;-83
2022/12/20 02:48:33;;;;;;;5.83;5.30;;;24.60;37.70;;;-142.21;31.00;112049.66;5073593;28;20221;-83
2022/12/20 02:51:05;;;;;;;5.97;5.47;;;24.70;37.70;;;-142.21;31.03;112049.66;5074446;28;20205;-82
2022/12/20 02:53:33;;;;;;;5.40;5.00;;;24.70;37.70;;;-142.21;31.05;112049.66;5074303;28;20197;-83
2022/12/20 02:56:10;;;;;;;5.70;5.20;;;24.70;37.70;;;-142.21;31.14;112049.66;5074054;28;20251;-81
2022/12/20 02:58:49;;;;;;;6.37;5.77;;;24.70;37.80;;;-142.21;31.11;112049.66;5073961;28;20296;-82
2022/12/20 03:01:27;;;;;;;6.10;5.53;;;24.70;37.70;;;-142.21;30.98;112049.66;5074035;28;20204;-84
2022/12/20 03:03:56;;;;;;;5.73;5.17;;;24.70;37.70;;;-142.21;31.23;112049.66;5074447;28;20692;-82
2022/12/20 03:06:24;;;;;;;5.97;5.47;;;24.70;37.70;;;-142.21;30.97;112049.66;5073324;28;20751;-81
2022/12/20 03:08:51;;;;;;;6.13;5.63;;;24.70;37.70;;;-142.21;31.27;112049.66;5073774;28;20227;-83
2022/12/20 03:11:19;;;;;;;5.10;4.70;;;24.70;37.70;;;-142.21;30.77;112049.66;5074271;28;20653;-81
2022/12/20 03:13:46;;;;;;;5.80;5.30;;;24.70;37.70;;;-142.21;30.97;112049.66;5074056;28;20299;-81
2022/12/20 03:16:13;;;;;;;6.03;5.43;;;24.70;37.70;;;-142.21;30.79;112049.66;5074066;28;20328;-84
2022/12/20 03:18:44;;;;;;;5.40;4.90;;;24.70;37.70;;;-142.21;30.97;112049.66;5074087;28;20228;-82
2022/12/20 03:21:11;;;;;;;6.00;5.50;;;24.70;37.70;;;-142.21;31.21;112049.66;5078274;28;20291;-83
2022/12/20 03:23:38;;;;;;;5.87;5.37;;;24.70;37.70;;;-142.21;31.13;112049.66;5093529;28;20235;-82
2022/12/20 03:26:06;;;;;;;6.13;5.53;;;24.70;37.70;;;-142.21;31.03;112049.66;5093922;28;20287;-83
2022/12/20 03:28:33;;;;;;;5.70;5.20;;;24.70;37.70;;;-142.21;30.96;112049.66;5093512;28;20235;-83
2022/12/20 03:31:00;;;;;;;5.53;4.73;;;24.70;37.70;;;-142.21;31.23;112049.66;5093967;28;20211;-82
2022/12/20 03:33:27;;;;;;;5.70;5.20;;;24.70;37.70;;;-142.21;30.90;112049.66;5074141;28;20235;-81
2022/12/20 03:35:56;;;;;;;6.20;5.60;;;24.80;37.80;;;-142.21;31.33;112049.66;5073272;28;20753;-83
2022/12/20 03:38:23;;;;;;;5.40;5.00;;;24.70;37.70;;;-142.21;31.22;112049.66;5072749;28;20225;-82
2022/12/20 03:40:51;;;;;;;5.20;4.70;;;24.80;37.80;;;-142.21;30.89;112049.66;5073422;28;20620;-80
2022/12/20 03:43:18;;;;;;;5.37;4.97;;;24.70;37.70;;;-142.21;31.09;112049.66;5073513;28;20239;-80
2022/12/20 03:45:45;;;;;;;5.93;5.40;;;24.70;37.70;;;-142.21;30.92;112049.66;5072791;28;20272;-81
2022/12/20 03:48:12;;;;;;;6.03;5.53;;;24.80;38.40;;;-142.21;31.34;112049.66;5072782;28;20252;-83
2022/12/20 03:50:40;;;;;;;5.30;4.83;;;24.80;37.80;;;-142.21;31.26;112049.66;5072801;28;20733;-81
2022/12/20 03:53:08;;;;;;;6.03;5.53;;;24.70;37.70;;;-142.21;31.17;112049.66;5072785;28;20954;-83
2022/12/20 03:55:36;;;;;;;5.50;5.00;;;24.80;37.80;;;-142.21;31.15;112049.66;5073180;28;20757;-84
2022/12/20 03:58:03;;;;;;;6.07;5.50;;;24.80;37.80;;;-142.21;31.21;112049.66;5066209;28;20859;-83
2022/12/20 04:00:30;;;;;;;5.30;4.90;;;24.70;37.80;;;-142.21;30.94;112049.66;5051885;28;20215;-83
2022/12/20 04:02:57;;;;;;;5.60;5.10;;;24.70;37.70;;;-142.21;31.40;112049.66;5053618;28;20225;-84
2022/12/20 04:05:25;;;;;;;6.23;5.40;;;24.70;37.70;;;-142.21;31.15;112049.66;5052862;28;20317;-83
2022/12/20 04:07:52;;;;;;;5.57;5.07;;;24.70;37.70;;;-142.21;31.04;112049.66;5053614;28;20293;-83
2022/12/20 04:10:20;;;;;;;5.70;5.20;;;24.70;37.70;;;-142.21;31.13;112049.66;5053853;28;20229;-83
2022/12/20 04:12:48;;;;;;;5.33;4.83;;;24.70;37.80;;;-142.21;30.96;112049.66;5053043;28;20202;-83
2022/12/20 04:15:15;;;;;;;6.07;5.57;;;24.70;37.70;;;-142.21;31.33;112049.66;5053232;28;20222;-83
2022/12/20 04:17:42;;;;;;;5.17;4.67;;;24.70;37.70;;;-142.21;31.33;112049.66;5052635;28;20305;-82
2022/12/20 04:20:21;;;;;;;5.67;5.17;;;24.70;37.80;;;-142.21;31.15;112049.66;5053051;28;20635;-82
2022/12/20 04:22:50;;;;;;;5.30;4.80;;;24.70;37.80;;;-142.21;30.81;112049.66;5052802;28;20267;-82
2022/12/20 04:25:21;;;;;;;5.50;4.97;;;24.70;37.80;;;-142.21;31.17;112049.66;5053172;28;20205;-81
2022/12/20 04:27:49;;;;;;;5.63;5.13;;;24.70;37.80;;;-142.21;31.40;112049.66;5052813;28;20202;-83
2022/12/20 04:30:16;;;;;;;5.73;5.23;;;24.70;37.80;;;-142.21;31.50;112049.66;5052899;28;20247;-83
2022/12/20 04:32:44;;;;;;;5.47;4.97;;;24.80;37.90;;;-142.21;31.17;112049.66;5064904;28;20201;-83
2022/12/20 04:35:11;;;;;;;5.40;4.90;;;24.70;37.80;;;-142.21;31.27;112049.66;5073063;28;20231;-82
2022/12/20 04:37:39;;;;;;;5.73;5.23;;;24.80;37.90;;;-142.21;31.30;112049.66;5073342;28;20235;-82
2022/12/20 04:40:08;;;;;;;5.40;4.90;;;24.70;37.80;;;-142.21;31.36;112049.66;5073468;28;20233;-83
2022/12/20 04:42:37;;;;;;;5.13;4.63;;;24.70;37.90;;;-142.21;30.96;112049.66;5071123;28;20236;-83
2022/12/20 04:45:05;;;;;;;5.57;5.07;;;24.70;37.80;;;-142.21;31.46;112049.66;5072867;28;20205;-83
2022/12/20 04:47:32;;;;;;;6.00;5.50;;;24.70;37.90;;;-142.21;31.19;112049.66;5072385;28;20314;-83
2022/12/20 04:50:00;;;;;;;5.53;5.03;;;24.70;37.80;;;-142.21;31.52;112049.66;5062313;28;20644;-82
2022/12/20 04:55:12;;;;;;;4.97;4.57;;;24.70;37.90;;;-142.21;31.19;112049.66;5074203;28;20301;-82
2022/12/20 04:57:40;;;;;;;5.13;4.73;;;24.80;37.90;;;-142.21;31.23;112049.66;5079373;28;20567;-82
2022/12/20 05:00:10;;;;;;;5.33;4.83;;;24.70;37.90;;;-142.21;31.48;112049.66;5075574;28;20708;-83
2022/12/20 05:02:37;;;;;;;5.40;4.90;;;24.70;38.00;;;-142.21;31.19;112049.66;5073467;28;20257;-83
2022/12/20 05:05:05;;;;;;;5.53;5.03;;;24.70;37.90;;;-142.21;31.52;112049.66;5075184;28;20331;-84
2022/12/20 05:07:32;;;;;;;5.70;5.20;;;24.70;38.00;;;-142.21;31.53;112049.66;5076253;28;20296;-83
2022/12/20 05:10:00;;;;;;;5.30;4.90;;;24.70;38.00;;;-142.21;31.36;112049.66;5076676;28;20645;-83
2022/12/20 05:12:27;;;;;;;5.30;4.80;;;24.70;38.10;;;-142.21;31.57;112049.66;5075974;28;20241;-82
2022/12/20 05:14:56;;;;;;;5.53;5.07;;;24.70;38.00;;;-142.21;31.66;112049.66;5076381;28;20679;-82
2022/12/20 05:17:23;;;;;;;5.70;5.20;;;24.70;38.00;;;-142.21;31.61;112049.66;5075901;28;20227;-83
2022/12/20 05:19:50;;;;;;;5.10;4.70;;;24.70;37.90;;;-142.21;31.73;112049.66;5076029;28;20292;-82
2022/12/20 05:27:47;;;;;;;5.27;4.77;;;24.60;37.90;;;-142.21;31.55;112049.66;5075428;28;20189;-81
2022/12/20 05:30:16;;;;;;;5.40;4.90;;;24.70;38.10;;;-142.21;31.59;112049.66;5075901;28;20227;-82
2022/12/20 05:32:43;;;;;;;5.37;4.93;;;24.60;38.00;;;-142.21;31.68;112049.66;5075730;28;20716;-81
2022/12/20 05:35:11;;;;;;;5.47;4.97;;;24.60;38.00;;;-142.21;31.70;112049.66;5076717;28;20292;-85
2022/12/20 05:37:38;;;;;;;4.80;4.40;;;24.60;38.00;;;-142.21;31.48;112049.66;5075426;28;20228;-82
2022/12/20 05:40:07;;;;;;;5.67;5.17;;;24.70;38.10;;;-142.21;31.69;112049.66;5075313;28;20628;-80
2022/12/20 05:42:35;;;;;;;4.73;4.33;;;24.60;38.10;;;-142.21;31.51;112049.66;5075282;27;20239;-81
2022/12/20 05:45:02;;;;;;;5.47;5.00;;;24.60;38.00;;;-142.21;31.20;112049.66;5075750;28;20606;-81
2022/12/20 05:47:32;;;;;;;5.57;5.03;;;24.60;38.00;;;-142.21;31.62;112049.66;5075254;28;20227;-83
2022/12/20 05:50:00;;;;;;;5.00;4.60;;;24.60;38.10;;;-142.21;31.34;112049.66;5074415;28;20629;-82
2022/12/20 05:52:27;;;;;;;5.00;4.60;;;24.60;38.10;;;-142.21;31.26;112049.66;5075304;28;20221;-83
2022/12/20 05:54:55;;;;;;;5.10;4.70;;;24.60;38.00;;;-142.21;31.55;112049.66;5075693;28;20296;-82
2022/12/20 05:57:22;;;;;;;5.33;4.83;;;24.60;38.00;;;-142.21;31.81;112049.66;5075025;28;20315;-82
2022/12/20 05:59:50;;;;;;;4.63;4.23;;;24.60;38.10;;;-142.21;31.55;112049.66;5075085;28;20312;-83
2022/12/20 06:02:17;;;;;;;5.27;4.77;;;24.60;38.10;;;-142.21;31.46;112049.66;5075623;28;20296;-82
2022/12/20 06:04:46;;;;;;;5.10;4.70;;;24.60;38.10;;;-142.21;31.71;112049.66;5074724;28;20294;-81
2022/12/20 06:07:13;;;;;;;4.97;4.57;;;24.60;38.10;;;-142.21;31.35;112049.66;5075437;28;20223;-82
2022/12/20 06:09:40;;;;;;;4.70;4.30;;;24.60;38.00;;;-142.21;31.49;112049.66;5074658;28;20312;-82
2022/12/20 06:12:08;;;;;;;5.40;4.90;;;24.60;38.10;;;-142.21;31.56;112049.66;5075341;28;20232;-82
2022/12/20 06:14:35;;;;;;;5.13;4.70;;;24.60;38.10;;;-142.21;31.51;112049.66;5074061;28;20673;-83
2022/12/20 06:17:03;;;;;;;5.40;4.90;;;24.60;38.10;;;-142.21;31.32;112049.66;5074895;28;20728;-81
2022/12/20 06:19:30;;;;;;;4.80;4.40;;;24.50;38.10;;;-142.21;31.74;112049.66;5074813;28;20300;-83
2022/12/20 06:21:59;;;;;;;5.30;4.80;;;24.60;38.10;;;-142.21;31.61;112049.66;5075255;28;20235;-82
2022/12/20 06:24:27;;;;;;;4.73;4.33;;;24.50;38.00;;;-142.21;31.57;112049.66;5074718;28;20224;-83
2022/12/20 06:26:54;;;;;;;5.20;4.80;;;24.50;38.00;;;-142.21;31.52;112049.66;5062248;28;20205;-81
2022/12/20 06:29:23;;;;;;;5.40;4.90;;;24.60;38.10;;;-142.21;31.55;112049.66;5054959;28;20240;-81
2022/12/20 06:31:50;;;;;;;5.07;4.67;;;24.50;37.90;;;-142.21;31.78;112049.66;5060009;28;20205;-82
2022/12/20 06:34:18;;;;;;;5.03;4.63;;;24.60;38.00;;;-142.21;31.67;112049.66;5074990;28;20201;-83
2022/12/20 06:36:45;;;;;;;5.30;4.80;;;24.50;38.00;;;-142.21;31.51;112049.66;5074052;28;20312;-84
2022/12/20 06:39:14;;;;;;;5.07;4.63;;;24.50;38.00;;;-142.21;31.57;112049.66;5092285;28;20238;-82
2022/12/20 06:41:42;;;;;;;5.00;4.60;;;24.50;38.10;;;-142.21;31.41;112049.66;5094252;28;20291;-85
2022/12/20 06:44:09;;;;;;;5.10;4.70;;;24.50;38.00;;;-142.21;31.62;112049.66;5094617;28;20208;-80
2022/12/20 06:46:37;;;;;;;5.13;4.73;;;24.50;38.10;;;-142.21;31.32;112049.66;5094862;28;20223;-81
2022/12/20 06:49:04;;;;;;;5.47;4.97;;;24.50;38.10;;;-142.21;31.68;112049.66;5094687;28;20621;-80
2022/12/20 06:51:32;;;;;;;4.83;4.43;;;24.50;38.10;;;-142.21;31.59;112049.66;5094786;28;20229;-80
2022/12/20 06:53:59;;;;;;;5.27;4.63;;;24.50;38.10;;;-142.21;31.64;112049.66;5094663;28;20228;-83
2022/12/20 06:56:28;;;;;;;5.60;5.10;;;24.50;38.10;;;-142.21;31.86;112049.66;5065679;28;20271;-80
2022/12/20 06:58:55;;;;;;;5.00;4.60;;;24.50;38.20;;;-142.21;31.83;112049.66;5054495;28;20238;-84
2022/12/20 07:01:22;;;;;;;5.57;5.00;;;24.50;38.30;;;-142.21;31.90;112049.66;5054766;28;20198;-82
2022/12/20 07:03:50;;;;;;;5.20;4.70;;;24.50;38.30;;;-142.21;31.98;112049.66;5054601;28;20304;-84
2022/12/20 07:06:17;;;;;;;6.37;4.73;;;24.50;38.60;;;-142.21;32.03;112049.66;5054974;28;20325;-82
2022/12/20 07:08:45;;;;;;;5.07;4.57;;;24.50;38.50;;;-142.21;32.00;112049.66;5055637;28;20232;-84
2022/12/20 07:11:12;;;;;;;5.10;4.60;;;24.50;38.70;;;-142.21;32.05;112049.66;5055372;28;20232;-84
2022/12/20 07:13:41;;;;;;;5.87;5.00;;;24.50;38.80;;;-142.21;32.31;112049.66;5054973;28;20207;-84
2022/12/20 07:16:08;;;;;;;5.07;4.50;;;24.50;38.80;;;-142.21;32.20;112049.66;5054910;28;20225;-84
2022/12/20 07:18:36;;;;;;;5.47;4.80;;;24.50;38.80;;;-142.21;32.31;112049.66;5055190;28;20263;-84
2022/12/20 07:21:06;;;;;;;5.90;4.60;;;24.50;38.80;;;-142.21;32.29;112049.66;5055263;28;20669;-85
2022/12/20 07:23:34;;;;;;;4.80;4.40;;;24.60;39.00;;;-142.21;32.24;112049.66;5055357;28;20283;-87
2022/12/20 07:26:02;;;;;;;5.13;4.63;;;24.50;38.90;;;-142.21;32.29;112049.66;5054670;28;20221;-84
2022/12/20 07:28:30;;;;;;;5.10;4.60;;;24.50;38.90;;;-142.21;32.26;112049.66;5054748;28;20600;-85
2022/12/20 07:31:01;;;;;;;5.70;5.03;;;24.50;38.90;;;-142.21;32.27;112049.66;5055010;28;20229;-85
2022/12/20 07:33:29;;;;;;;6.53;5.07;;;24.50;39.00;;;-142.21;32.34;112049.66;5054398;28;20205;-84
2022/12/20 07:36:01;;;;;;;9.93;4.87;;;24.50;38.90;;;-142.21;31.94;112049.66;5053622;28;20248;-79
2022/12/20 07:38:29;;;;;;;6.80;6.10;;;24.60;39.10;;;-142.21;31.23;112049.66;5052329;28;20586;-78
2022/12/20 07:40:56;;;;;;;5.30;4.80;;;24.50;38.00;;;-142.21;32.11;112049.66;5053277;28;20201;-78
2022/12/20 07:43:26;;;;;;;5.40;4.87;;;24.40;38.30;;;-142.21;31.64;112049.66;5052624;28;20240;-79
2022/12/20 07:45:55;;;;;;;7.00;6.07;;;24.30;38.30;;;-142.21;31.58;112049.66;5052857;28;20247;-81
2022/12/20 07:48:25;;;;;;;5.90;5.30;;;24.10;37.90;;;-142.21;32.18;112049.66;5052755;28;20693;-79
2022/12/20 07:50:55;;;;;;;6.70;5.03;;;24.10;38.50;;;-142.21;31.89;112049.66;5052370;28;20719;-80
2022/12/20 07:53:24;;;;;;;5.30;4.90;;;24.10;38.80;;;-142.21;32.13;112049.66;5052702;28;20263;-80
2022/12/20 07:55:53;;;;;;;5.53;4.80;;;24.10;38.90;;;-142.21;32.25;112049.66;5052394;28;20296;-78
2022/12/20 07:58:22;;;;;;;5.07;4.67;;;24.10;38.80;;;-142.21;32.21;112049.66;5052515;28;20258;-80
2022/12/20 08:00:50;;;;;;;5.57;5.03;;;24.20;38.90;;;-142.21;32.01;112049.66;5052548;28;20236;-81
2022/12/20 08:03:22;;;;;;;5.07;4.57;;;24.10;38.80;;;-142.21;32.02;112049.66;5052812;28;20710;-80
2022/12/20 08:05:58;;;;;;;5.10;4.60;;;24.20;38.80;;;-142.21;31.96;112049.66;5052126;28;20261;-80
2022/12/20 08:08:26;;;;;;;5.27;4.77;;;24.20;38.80;;;-142.21;31.92;112049.66;5052683;28;20201;-80
2022/12/20 08:10:56;;;;;;;5.90;5.17;;;24.20;38.80;;;-142.21;32.19;112049.66;5052401;28;20210;-80
2022/12/20 08:13:24;;;;;;;5.60;5.10;;;24.20;38.70;;;-142.21;32.24;112049.66;5052765;28;20205;-81
2022/12/20 08:15:51;;;;;;;5.10;4.60;;;24.30;38.80;;;-142.21;32.08;112049.66;5052343;28;20202;-80
2022/12/20 08:18:18;;;;;;;5.77;4.70;;;24.30;38.80;;;-142.21;32.00;112049.66;5052768;28;20341;-80
2022/12/20 08:20:45;;;;;;;6.17;5.37;;;24.30;38.70;;;-142.21;31.84;112049.66;5052060;28;20213;-81
2022/12/20 08:23:14;;;;;;;4.80;4.40;;;24.40;38.80;;;-142.21;32.18;112049.66;5070975;28;20214;-80
2022/12/20 08:25:42;;;;;;;4.90;4.43;;;24.30;38.60;;;-142.21;31.91;112049.66;5072312;28;20193;-79
2022/12/20 08:28:09;;;;;;;5.33;4.83;;;24.40;38.70;;;-142.21;31.94;112049.66;5053089;28;20667;-79
2022/12/20 08:30:37;;;;;;;5.07;4.67;;;24.40;38.70;;;-142.21;32.06;112049.66;5052752;28;20216;-79
2022/12/20 08:33:05;;;;;;;4.57;4.17;;;24.40;38.70;;;-142.21;31.89;112049.66;5068256;28;20297;-80
2022/12/20 08:35:32;;;;;;;5.43;4.93;;;24.40;38.70;;;-142.21;32.15;112049.66;5072183;28;20204;-79
2022/12/20 08:38:00;;;;;;;5.17;4.67;;;24.40;38.70;;;-142.21;31.85;112049.66;5073183;28;20317;-79
2022/12/20 08:40:28;;;;;;;4.77;4.37;;;24.40;38.70;;;-142.21;31.89;112049.66;5076639;28;20205;-80
2022/12/20 08:42:56;;;;;;;4.90;4.40;;;24.40;39.20;;;-142.21;31.80;112049.66;5076117;28;20208;-78
2022/12/20 08:45:23;;;;;;;4.67;4.27;;;24.40;38.60;;;-142.21;32.02;112049.66;5076357;28;20279;-78
2022/12/20 08:47:50;;;;;;;6.10;4.80;;;24.40;38.60;;;-142.21;32.06;112049.66;5076071;28;20217;-79
2022/12/20 08:50:18;;;;;;;4.77;4.20;;;24.40;38.60;;;-142.21;31.96;112049.66;5076366;28;20254;-78
2022/12/20 08:52:46;;;;;;;5.00;4.50;;;24.40;38.60;;;-142.21;32.28;112049.66;5075669;28;20212;-79
2022/12/20 08:55:13;;;;;;;4.70;4.30;;;24.40;38.60;;;-142.21;32.05;112049.66;5075850;28;20213;-80
2022/12/20 08:57:42;;;;;;;5.17;4.67;;;24.40;38.50;;;-142.21;32.18;112049.66;5075507;28;20242;-78
2022/12/20 09:00:12;;;;;;;4.93;4.53;;;24.50;38.70;;;-142.21;31.88;112049.66;5076222;28;20270;-79
2022/12/20 09:02:40;;;;;;;4.60;4.20;;;24.40;38.60;;;-142.21;32.20;112049.66;5075688;28;20592;-78
2022/12/20 09:05:08;;;;;;;4.43;4.03;;;24.50;38.70;;;-142.21;31.88;112049.66;5075622;28;20278;-79
2022/12/20 09:07:35;;;;;;;4.70;4.30;;;24.40;38.70;;;-142.21;31.79;112049.66;5075364;28;20212;-79
2022/12/20 09:10:02;;;;;;;4.67;4.27;;;24.40;38.50;;;-142.21;32.00;112049.66;5075979;28;20258;-79
2022/12/20 09:12:36;;;;;;;4.87;4.40;;;24.40;38.70;;;-142.21;32.18;112049.66;5075754;28;20240;-79
2022/12/20 09:15:07;;;;;;;4.03;3.73;;;24.40;38.70;;;-142.21;32.20;112049.66;5075808;28;20551;-79
2022/12/20 09:17:34;;;;;;;5.03;4.53;;;24.40;38.70;;;-142.21;32.16;112049.66;5075296;28;20341;-79
2022/12/20 09:20:01;;;;;;;6.53;4.27;;;24.40;38.60;;;-142.21;31.82;112049.66;5075421;28;20300;-79
2022/12/20 09:22:29;;;;;;;4.43;4.03;;;24.50;38.60;;;-142.21;32.08;112049.66;5075801;28;20596;-80
2022/12/20 09:24:57;;;;;;;4.67;4.27;;;24.50;38.60;;;-142.21;32.12;112049.66;5075418;28;20259;-80
2022/12/20 09:27:24;;;;;;;4.70;4.30;;;24.50;38.60;;;-142.21;31.90;112049.66;5075550;28;20663;-79
2022/12/20 09:29:51;;;;;;;4.50;4.10;;;24.50;38.60;;;-142.21;32.09;112049.66;5075233;28;20696;-78
2022/12/20 09:32:20;;;;;;;4.50;4.10;;;24.50;38.60;;;-142.21;32.11;112049.66;5075425;28;20205;-78
2022/12/20 09:34:48;;;;;;;4.80;4.40;;;24.50;38.60;;;-142.21;32.12;112049.66;5074610;28;20671;-80
2022/12/20 09:37:15;;;;;;;4.60;4.20;;;24.50;38.80;;;-142.21;32.04;112049.66;5075118;28;20967;-79
2022/12/20 09:39:43;;;;;;;4.50;4.10;;;24.50;38.60;;;-142.21;32.09;112049.66;5074615;28;20285;-79
2022/12/20 09:42:10;;;;;;;4.47;4.07;;;24.50;38.60;;;-142.21;31.93;112049.66;5074999;28;20197;-80
2022/12/20 09:44:41;;;;;;;4.47;4.10;;;24.50;38.60;;;-142.21;31.99;112049.66;5074865;28;20270;-79
2022/12/20 09:47:15;;;;;;;4.30;4.00;;;24.50;38.80;;;-142.21;32.19;112049.66;5075401;28;20221;-79
2022/12/20 09:49:50;;;;;;;4.53;4.13;;;24.50;38.70;;;-142.21;31.79;112049.66;5073777;28;20624;-79
2022/12/20 09:52:39;;;;;;;4.50;4.10;;;24.50;38.70;;;-142.21;32.04;112049.66;5074945;28;20228;-77
2022/12/20 09:55:21;;;;;;;4.10;3.80;;;24.50;38.80;;;-142.21;31.93;112049.66;5086124;28;20192;-78
2022/12/20 09:58:04;;;;;;;4.67;4.17;;;24.50;38.80;;;-142.21;32.03;112049.66;5094574;28;20212;-78
2022/12/20 10:00:36;;;;;;;4.70;4.30;;;24.50;38.80;;;-142.21;32.31;112049.66;5095399;28;20202;-78
2022/12/20 10:03:04;;;;;;;5.07;4.57;;;24.50;38.70;;;-142.21;32.01;112049.66;5095111;28;20640;-78
2022/12/20 10:05:45;;;;;;;4.33;3.87;;;24.50;38.70;;;-142.21;32.38;112049.66;5094989;28;20730;-78
2022/12/20 10:08:30;;;;;;;4.10;3.80;;;24.50;38.80;;;-142.21;32.15;112049.66;5095117;28;20188;-79
2022/12/20 10:11:08;;;;;;;4.07;3.77;;;24.50;38.80;;;-142.21;32.13;112049.66;5094694;28;20203;-77
2022/12/20 10:14:01;;;;;;;4.40;4.00;;;24.50;38.80;;;-142.21;32.29;112049.66;5095335;28;20319;-79
2022/12/20 10:16:44;;;;;;;4.13;3.80;;;24.50;38.90;;;-142.21;31.99;112049.66;5095445;28;20271;-79
2022/12/20 10:19:33;;;;;;;4.40;4.00;;;24.50;38.90;;;-142.21;32.11;112049.66;5094883;28;20223;-80
2022/12/20 10:22:13;;;;;;;4.33;3.90;;;24.50;38.90;;;-142.21;32.13;112049.66;5094296;28;20192;-78